BFIBOEING FLD/KING COUNTY INTL
METARs for airports near BFI, sorted by distance:
N 0 nm 21' KBFI 250353Z 15005KT 10SM CLR 05/00 A3049
SE 4 nm 32' KRNT 250353Z 00000KT 10SM CLR 06/01 A3049
S 4 nm 432' KSEA 250353Z 17004KT 10SM SCT120 OVC200 05/00 A3047
W 18 nm 444' KPWT 250356Z 20004KT 10SM FEW110 04/01 A3047
SW 19 nm 294' KTIW 250353Z 00000KT 10SM FEW120 04/01 A3047
N 22 nm 607' KPAE 250353Z 15009KT 10SM CLR 05/M01 A3046
S 24 nm 322' KTCM 250358Z 00000KT 10SM BKN120 03/01 A3048
S 25 nm 537' KPLU 250435Z 00000KT 10SM BKN110 03/03 A3045
S 29 nm 301' KGRF 250358Z 12003KT 10SM OVC110 03/03 A3047
N 38 nm 141' KAWO 250356Z 00000KT 10SM CLR 05/01 A3047
SW 38 nm 272' KSHN 250353Z 00000KT 10SM FEW120 03/01 A3046
SW 41 nm 207' KOLM 250354Z 00000KT 10SM CLR 03/00 A3049
N 51 nm 47' KNUW 250356Z 11007KT 10SM SCT110 BKN130 OVC250 05/01 A3048
N 56 nm 145' KBVS 250435Z 09004KT 10SM FEW080 BKN095 OVC120 04/01 A3044
NW 57 nm 13' KNOW 250435Z 24004KT 10SM OVC100 05/02 A3040
SW 58 nm 177' KCLS 250435Z 00000KT 10SM BKN110 04/03 A3047
NW 59 nm 291' KCLM 250353Z 00000KT 10SM OVC100 03/01 A3042
NW 66 nm 112' KFHR 250353Z 15004KT 10SM OVC036 05/02 A3045
SW 74 nm 17' KHQM 250353Z 13003KT 10SM OVC100 06/01 A3047
N 74 nm 34' KORS 250435Z 00000KT 10SM BKN080 OVC100 04/02 A3040
N 76 nm 171' KBLI 250353Z 00000KT 10SM FEW120 04/01 A3044
E 78 nm 1763' KELN 250353Z 00000KT 10SM CLR 01/M05 A3044
NW 80 nm 64' CYYJ 250400Z 16003KT 20SM FEW060 OVC100 04/01 A3043
E 85 nm 1248' KEAT 250355Z 30003KT 10SM CLR 02/M04 A3043
S 88 nm 20' KKLS 250356Z 00000KT 10SM FEW120 03/02 A3051
SE 92 nm 1098' KYKM 250353Z 00000KT 10SM CLR 03/M06 A3047
W 94 nm 193' KUIL 250353Z 16005KT 10SM FEW031 BKN075 OVC110 05/00 A3042
TAFs for airports near BFI, sorted by distance:
N 0 nm 21' KBFI TAF KBFI 242320Z 2500/2524 23004KT P6SM SCT030 OVC250
  FM250300 16007KT P6SM BKN100 OVC250
  FM250900 17008KT P6SM OVC050
  FM251200 16010KT P6SM -RA OVC025
  FM251800 22015G25KT P6SM -SHRA OVC025
S 4 nm 432' KSEA KSEA 250306Z 2503/2606 16007KT P6SM BKN100 OVC250
  FM250900 17008KT P6SM OVC050
  FM251200 16012KT P6SM -RA OVC025
  FM251800 22015G25KT P6SM -SHRA OVC025
W 18 nm 444' KPWT TAF KPWT 242320Z 2500/2524 VRB03KT P6SM SCT030 OVC250
  FM250300 16007KT P6SM BKN100 OVC250
  FM250900 17008KT P6SM OVC050
  FM251200 16010KT P6SM -RA OVC025
  FM251900 20020G30KT P6SM -SHRA OVC015
N 22 nm 607' KPAE TAF KPAE 242320Z 2500/2524 00000KT P6SM FEW050 OVC250
  FM250300 16007KT P6SM BKN100 OVC250
  FM250900 17012KT P6SM OVC050
  FM251100 16015G25KT P6SM -RA OVC025
  FM251900 20020G30KT P6SM -SHRA OVC015
S 24 nm 322' KTCM TAF KTCM 242100Z 2421/2603 28003KT 9999 FEW200 QNH3057INS
  BECMG 2503/2504 14003KT 9999 SCT120 BKN170 QNH3047INS
  BECMG 2508/2509 18006KT 9999 BKN050 620509 QNH3000INS
  BECMG 2512/2513 20012KT 9000 -SHRA BKN010 610109 520105 QNH3015INS
  BECMG 2517/2518 23012G20KT 9999 VCSH BKN015 610309 510009 QNH3017INS
  TEMPO 2520/2601 24020G30KT 520009
  BECMG 2600/2601 24014G20KT 9000 -SHRA BKN030 610309 510009 QNH3013INS TX07/2518Z TN04/2507Z
S 29 nm 301' KGRF TAF TAF KGRF 242059Z 2421/2603 VRB05KT 9999 FEW030 QNH3041INS
  BECMG 2504/2505 20005KT 9999 SCT100 QNH3027INS
  BECMG 2509/2510 20010KT 9000 -RA BKN025 620258 QNH3020INS
  BECMG 2511/2512 22013G25KT 9000 -SHRA OVC020 630208 QNH3015INS
  TEMPO 2512/2515 8000 SHRA OVC012
  BECMG 2517/2518 23010G20KT 9000 -SHRA OVC020 630208 QNH3010INS TX05/2500Z TN03/2510Z
SW 41 nm 207' KOLM TAF KOLM 242320Z 2500/2524 20005KT P6SM FEW035 OVC250
  FM250300 16007KT P6SM BKN100 OVC250
  FM250900 17009KT P6SM OVC050
  FM251100 20011KT P6SM -RA OVC025
  FM251900 25012G20KT P6SM -SHRA OVC025
N 51 nm 47' KNUW TAF KNUW 2415/2515 VRB06KT 9999 SCT020 SCT060 BKN250 QNH3055INS
  TEMPO 2415/2419 14007KT 9000 BR BCFG BKN020 BKN250
  FM242000 13009KT 9999 SCT015 SCT025 QNH3036INS
  TEMPO 2501/2507 13012G21KT BKN020 BKN030
  FM250700 16015G25KT 9999 -RA BKN025 540009 540903 650309 651205 QNH3010INS
  TEMPO 2509/2515 16022G36KT 4800 -RA BKN015 BKN028 OVC050 T00/2415Z T07/2523Z FS30004
NW 59 nm 291' KCLM TAF KCLM 242320Z 2500/2524 VRB03KT P6SM FEW030 OVC250
  FM250300 VRB03KT P6SM OVC100
  FM250700 24006KT P6SM OVC050
  FM251200 25012KT P6SM -RA OVC015
  FM251800 28015G25KT P6SM -SHRA BKN025
  FM252200 28025G35KT P6SM BKN050
SW 74 nm 17' KHQM TAF KHQM 242320Z 2500/2524 11004KT P6SM FEW030 BKN100 OVC250
  FM250600 14008KT P6SM VCSH OVC100
  FM250900 15015G25KT P6SM -RA OVC050
  FM251200 19020G30KT 5SM -RA OVC015
  FM251600 23015G25KT P6SM -SHRA OVC020
N 76 nm 171' KBLI TAF KBLI 242320Z 2500/2524 20006KT P6SM OVC250
  FM250600 14010KT P6SM OVC100
  FM250900 14012G20KT P6SM -RA OVC050
  FM251200 15015G25KT P6SM -RA OVC025
  FM251800 18015G25KT P6SM -SHRA OVC025
E 85 nm 1248' KEAT KEAT 242353Z 2500/2524 VRB04KT P6SM BKN120 BKN200
  FM251100 VRB03KT P6SM OVC070 PROB30 2513/2515 6SM -SHSN OVC040
  FM251600 30008KT P6SM BKN070 OVC150 WS020/26040KT
  FM251900 29018G26KT P6SM SCT050 BKN060
  FM252200 30025G33KT P6SM SCT070 SCT120
SE 92 nm 1098' KYKM TAF KYKM 242320Z 2500/2524 VRB05KT P6SM SCT060
  FM250200 25006KT P6SM BKN200
  FM250800 24009KT P6SM OVC090
  FM251200 24011KT P6SM -SHRASN OVC040
  FM251600 27020G30KT P6SM BKN060

Shortcut to this page: http://wxbay.com.

Data may contain errors.